createdAt,value
2023-02-07T00:00:25.724Z,1016.28
2023-02-07T00:01:25.746Z,1016.29
2023-02-07T00:02:25.772Z,1016.23
2023-02-07T00:03:25.732Z,1016.16
2023-02-07T00:04:25.698Z,1016.13
2023-02-07T00:05:25.694Z,1016.13
2023-02-07T00:06:25.712Z,1016.12
2023-02-07T00:07:25.674Z,1016.11
2023-02-07T00:08:25.673Z,1016.18
2023-02-07T00:09:25.663Z,1016.13
2023-02-07T00:10:25.658Z,1016.11
2023-02-07T00:11:25.687Z,1016.13
2023-02-07T00:12:25.644Z,1016.13
2023-02-07T00:13:25.631Z,1016.14
2023-02-07T00:14:25.627Z,1016.10
2023-02-07T00:15:25.624Z,1016.03
2023-02-07T00:16:25.676Z,1016.13
2023-02-07T00:17:25.606Z,1016.10
2023-02-07T00:18:25.598Z,1015.95
2023-02-07T00:19:25.594Z,1016.03
2023-02-07T00:20:25.591Z,1015.97
2023-02-07T00:21:25.600Z,1015.93
2023-02-07T00:22:25.567Z,1015.93
2023-02-07T00:23:25.557Z,1015.88
2023-02-07T00:24:25.552Z,1015.75
2023-02-07T00:25:25.545Z,1015.72
2023-02-07T00:26:25.564Z,1015.71
2023-02-07T00:27:25.532Z,1015.64
2023-02-07T00:28:25.645Z,1015.70
2023-02-07T00:29:25.517Z,1015.58
2023-02-07T00:30:25.612Z,1015.65
2023-02-07T00:31:25.649Z,1015.67
2023-02-07T00:32:25.498Z,1015.76
2023-02-07T00:33:25.488Z,1015.63
2023-02-07T00:34:25.481Z,1015.80
2023-02-07T00:35:25.477Z,1015.74
2023-02-07T00:36:25.494Z,1015.83
2023-02-07T00:37:25.463Z,1015.91
2023-02-07T00:38:25.454Z,1015.91
2023-02-07T00:39:25.444Z,1015.92
2023-02-07T00:40:25.436Z,1015.95
2023-02-07T00:41:25.464Z,1016.04
2023-02-07T00:42:25.503Z,1016.05
2023-02-07T00:43:29.947Z,1016.05
2023-02-07T00:44:26.410Z,1016.09
2023-02-07T00:45:25.406Z,1016.07
2023-02-07T00:46:25.485Z,1016.07
2023-02-07T00:47:25.388Z,1016.07
2023-02-07T00:48:25.384Z,1016.07
2023-02-07T00:49:25.374Z,1016.08
2023-02-07T00:50:25.369Z,1016.06
2023-02-07T00:51:25.397Z,1015.97
2023-02-07T00:52:25.350Z,1016.01
2023-02-07T00:53:25.360Z,1016.06
2023-02-07T00:54:25.340Z,1016.15
2023-02-07T00:55:25.327Z,1016.01
2023-02-07T00:56:25.323Z,1016.00
2023-02-07T00:57:25.340Z,1015.95
2023-02-07T00:58:25.303Z,1016.01
2023-02-07T00:59:25.300Z,1016.02
2023-02-07T01:00:25.293Z,1015.99
2023-02-07T01:01:25.319Z,1016.02
2023-02-07T01:02:25.274Z,1015.94
2023-02-07T01:03:25.280Z,1016.00
2023-02-07T01:04:25.282Z,1015.98
2023-02-07T01:05:25.266Z,1015.94
2023-02-07T01:06:25.258Z,1016.00
2023-02-07T01:07:25.265Z,1016.01
2023-02-07T01:08:25.236Z,1016.00
2023-02-07T01:09:25.230Z,1016.01
2023-02-07T01:10:25.225Z,1016.02
2023-02-07T01:11:25.214Z,1016.02
2023-02-07T01:12:25.231Z,1016.03
2023-02-07T01:13:25.209Z,1016.04
2023-02-07T01:14:25.202Z,1016.04
2023-02-07T01:15:25.187Z,1016.05
2023-02-07T01:16:25.181Z,1016.01
2023-02-07T01:17:25.192Z,1015.99
2023-02-07T01:18:26.168Z,1015.95
2023-02-07T01:19:25.153Z,1016.06
2023-02-07T01:20:25.155Z,1016.00
2023-02-07T01:21:25.146Z,1016.03
2023-02-07T01:22:25.162Z,1016.01
2023-02-07T01:23:25.129Z,1016.06
2023-02-07T01:24:25.131Z,1016.02
2023-02-07T01:25:25.118Z,1016.05
2023-02-07T01:26:25.104Z,1015.99
2023-02-07T01:27:25.133Z,1015.95
2023-02-07T01:28:25.097Z,1015.94
2023-02-07T01:29:25.084Z,1016.03
2023-02-07T01:30:25.072Z,1016.00
2023-02-07T01:31:25.179Z,1015.97
2023-02-07T01:32:25.083Z,1016.01
2023-02-07T01:33:25.050Z,1015.97
2023-02-07T01:34:25.041Z,1015.85
2023-02-07T01:35:25.038Z,1015.91
2023-02-07T01:36:25.031Z,1015.87
2023-02-07T01:37:25.052Z,1015.84
2023-02-07T01:38:25.012Z,1015.89
2023-02-07T01:39:25.005Z,1015.81
2023-02-07T01:40:24.998Z,1015.82
2023-02-07T01:41:24.986Z,1015.84
2023-02-07T01:42:25.015Z,1015.86
2023-02-07T01:43:24.974Z,1015.81
2023-02-07T01:44:24.973Z,1015.84
2023-02-07T01:45:24.966Z,1015.80
2023-02-07T01:46:25.029Z,1015.80
2023-02-07T01:47:24.978Z,1015.76
2023-02-07T01:48:24.938Z,1015.72
2023-02-07T01:49:24.926Z,1015.76
2023-02-07T01:50:24.929Z,1015.73
2023-02-07T01:51:24.910Z,1015.75
2023-02-07T01:52:24.948Z,1015.76
2023-02-07T01:53:24.898Z,1015.65
2023-02-07T01:54:24.897Z,1015.65
2023-02-07T01:55:24.885Z,1015.61
2023-02-07T01:56:31.716Z,1015.56
2023-02-07T01:57:26.901Z,1015.62
2023-02-07T01:58:24.865Z,1015.63
2023-02-07T01:59:24.854Z,1015.60
2023-02-07T02:00:24.882Z,1015.74
2023-02-07T02:01:24.904Z,1015.66
2023-02-07T02:02:24.905Z,1015.64
2023-02-07T02:03:24.827Z,1015.70
2023-02-07T02:04:24.830Z,1015.65
2023-02-07T02:05:24.835Z,1015.62
2023-02-07T02:06:24.841Z,1015.65
2023-02-07T02:07:24.814Z,1015.56
2023-02-07T02:08:24.828Z,1015.67
2023-02-07T02:09:24.800Z,1015.71
2023-02-07T02:10:25.776Z,1015.70
2023-02-07T02:11:24.796Z,1015.69
2023-02-07T02:12:24.791Z,1015.66
2023-02-07T02:13:24.783Z,1015.69
2023-02-07T02:14:25.746Z,1015.64
2023-02-07T02:15:24.794Z,1015.66
2023-02-07T02:16:24.778Z,1015.63
2023-02-07T02:17:24.729Z,1015.65
2023-02-07T02:18:24.755Z,1015.64
2023-02-07T02:19:24.722Z,1015.66
2023-02-07T02:20:24.707Z,1015.60
2023-02-07T02:21:24.701Z,1015.65
2023-02-07T02:22:24.691Z,1015.57
2023-02-07T02:23:24.714Z,1015.54
2023-02-07T02:24:24.678Z,1015.55
2023-02-07T02:25:24.672Z,1015.55
2023-02-07T02:26:24.666Z,1015.52
2023-02-07T02:27:24.661Z,1015.51
2023-02-07T02:28:24.675Z,1015.46
2023-02-07T02:29:24.641Z,1015.57
2023-02-07T02:30:24.659Z,1015.52
2023-02-07T02:31:24.677Z,1015.45
2023-02-07T02:32:24.628Z,1015.45
2023-02-07T02:33:24.636Z,1015.39
2023-02-07T02:34:24.606Z,1015.33
2023-02-07T02:35:24.595Z,1015.35
2023-02-07T02:36:24.589Z,1015.38
2023-02-07T02:37:24.581Z,1015.40
2023-02-07T02:38:24.598Z,1015.39
2023-02-07T02:39:24.569Z,1015.45
2023-02-07T02:40:24.552Z,1015.46
2023-02-07T02:41:25.554Z,1015.49
2023-02-07T02:42:24.545Z,1015.50
2023-02-07T02:43:24.561Z,1015.45
2023-02-07T02:44:24.529Z,1015.50
2023-02-07T02:45:24.522Z,1015.43
2023-02-07T02:46:24.556Z,1015.49
2023-02-07T02:47:24.515Z,1015.44
2023-02-07T02:48:24.538Z,1015.30
2023-02-07T02:49:24.495Z,1015.46
2023-02-07T02:50:24.499Z,1015.45
2023-02-07T02:51:24.487Z,1015.47
2023-02-07T02:52:34.038Z,1015.46
2023-02-07T02:53:25.514Z,1015.48
2023-02-07T02:54:24.465Z,1015.42
2023-02-07T02:55:24.477Z,1015.48
2023-02-07T02:56:24.445Z,1015.58
2023-02-07T02:57:24.437Z,1015.57
2023-02-07T02:58:24.432Z,1015.60
2023-02-07T02:59:24.452Z,1015.51
2023-02-07T03:00:24.418Z,1015.56
2023-02-07T03:01:24.460Z,1015.55
2023-02-07T03:02:24.404Z,1015.48
2023-02-07T03:03:24.392Z,1015.40
2023-02-07T03:04:24.416Z,1015.47
2023-02-07T03:05:24.424Z,1015.45
2023-02-07T03:06:24.374Z,1015.39
2023-02-07T03:07:24.362Z,1015.42
2023-02-07T03:08:24.361Z,1015.29
2023-02-07T03:09:24.378Z,1015.31
2023-02-07T03:10:24.341Z,1015.25
2023-02-07T03:11:24.336Z,1015.19
2023-02-07T03:12:24.333Z,1015.30
2023-02-07T03:13:24.337Z,1015.25
2023-02-07T03:14:24.342Z,1015.22
2023-02-07T03:15:24.312Z,1015.26
2023-02-07T03:16:24.345Z,1015.33
2023-02-07T03:17:24.310Z,1015.26
2023-02-07T03:18:24.310Z,1015.21
2023-02-07T03:19:24.287Z,1015.23
2023-02-07T03:20:24.271Z,1015.24
2023-02-07T03:21:24.270Z,1015.22
2023-02-07T03:22:24.257Z,1015.17
2023-02-07T03:23:24.280Z,1015.19
2023-02-07T03:24:24.239Z,1015.13
2023-02-07T03:25:24.234Z,1015.20
2023-02-07T03:26:24.227Z,1015.20
2023-02-07T03:27:25.219Z,1015.21
2023-02-07T03:28:24.246Z,1015.28
2023-02-07T03:29:24.207Z,1015.25
2023-02-07T03:30:24.206Z,1015.30
2023-02-07T03:31:24.221Z,1015.30
2023-02-07T03:32:24.191Z,1015.30
2023-02-07T03:33:24.209Z,1015.27
2023-02-07T03:34:24.171Z,1015.29
2023-02-07T03:35:24.158Z,1015.23
2023-02-07T03:36:24.157Z,1015.31
2023-02-07T03:37:24.147Z,1015.32
2023-02-07T03:38:24.170Z,1015.30
2023-02-07T03:39:24.133Z,1015.31
2023-02-07T03:40:24.127Z,1015.31
2023-02-07T03:41:24.119Z,1015.32
2023-02-07T03:42:24.118Z,1015.33
2023-02-07T03:43:24.114Z,1015.36
2023-02-07T03:44:24.123Z,1015.26
2023-02-07T03:45:24.083Z,1015.30
2023-02-07T03:46:24.108Z,1015.26
2023-02-07T03:47:24.067Z,1015.34
2023-02-07T03:48:24.065Z,1015.31
2023-02-07T03:49:24.091Z,1015.33
2023-02-07T03:50:24.044Z,1015.38
2023-02-07T03:51:24.046Z,1015.41
2023-02-07T03:52:24.032Z,1015.40
2023-02-07T03:53:24.025Z,1015.40
2023-02-07T03:54:24.054Z,1015.48
2023-02-07T03:55:24.017Z,1015.40
2023-02-07T03:56:24.014Z,1015.39
2023-02-07T03:57:24.003Z,1015.46
2023-02-07T03:58:23.994Z,1015.52
2023-02-07T03:59:24.017Z,1015.50
2023-02-07T04:00:23.985Z,1015.45
2023-02-07T04:01:23.973Z,1015.43
2023-02-07T04:02:24.020Z,1015.42
2023-02-07T04:03:23.966Z,1015.41
2023-02-07T04:04:23.977Z,1015.42
2023-02-07T04:05:23.948Z,1015.34
2023-02-07T04:06:23.930Z,1015.37
2023-02-07T04:07:24.930Z,1015.45
2023-02-07T04:08:23.938Z,1015.37
2023-02-07T04:09:23.945Z,1015.42
2023-02-07T04:10:23.912Z,1015.33
2023-02-07T04:11:23.905Z,1015.44
2023-02-07T04:12:23.906Z,1015.43
2023-02-07T04:13:23.883Z,1015.45
2023-02-07T04:14:23.923Z,1015.42
2023-02-07T04:15:23.884Z,1015.41
2023-02-07T04:16:23.910Z,1015.45
2023-02-07T04:17:23.862Z,1015.53
2023-02-07T04:18:23.872Z,1015.46
2023-02-07T04:19:23.880Z,1015.59
2023-02-07T04:20:23.842Z,1015.61
2023-02-07T04:21:23.835Z,1015.47
2023-02-07T04:22:23.826Z,1015.51
2023-02-07T04:23:23.830Z,1015.51
2023-02-07T04:24:23.844Z,1015.54
2023-02-07T04:25:23.799Z,1015.56
2023-02-07T04:26:23.802Z,1015.60
2023-02-07T04:27:23.768Z,1015.61
2023-02-07T04:28:24.778Z,1015.66
2023-02-07T04:29:23.770Z,1015.54
2023-02-07T04:30:23.813Z,1015.64
2023-02-07T04:31:23.792Z,1015.50
2023-02-07T04:32:23.754Z,1015.62
2023-02-07T04:33:23.751Z,1015.62
2023-02-07T04:34:23.731Z,1015.61
2023-02-07T04:35:23.771Z,1015.59
2023-02-07T04:36:24.729Z,1015.49
2023-02-07T04:37:23.716Z,1015.42
2023-02-07T04:38:23.706Z,1015.41
2023-02-07T04:39:23.701Z,1015.32
2023-02-07T04:40:23.727Z,1015.27
2023-02-07T04:41:23.686Z,1015.30
2023-02-07T04:42:23.673Z,1015.27
2023-02-07T04:43:23.676Z,1015.34
2023-02-07T04:44:23.670Z,1015.33
2023-02-07T04:45:23.682Z,1015.28
2023-02-07T04:46:23.653Z,1015.31
2023-02-07T04:47:23.647Z,1015.32
2023-02-07T04:48:23.636Z,1015.45
2023-02-07T04:49:23.626Z,1015.41
2023-02-07T04:50:23.655Z,1015.31
2023-02-07T04:51:23.616Z,1015.23
2023-02-07T04:52:23.608Z,1015.20
2023-02-07T04:53:23.596Z,1015.22
2023-02-07T04:54:23.590Z,1015.23
2023-02-07T04:55:23.617Z,1015.29
2023-02-07T04:56:23.576Z,1015.30
2023-02-07T04:57:23.577Z,1015.34
2023-02-07T04:58:23.559Z,1015.34
2023-02-07T04:59:23.550Z,1015.33
2023-02-07T05:00:23.569Z,1015.33
2023-02-07T05:01:23.573Z,1015.31
2023-02-07T05:02:23.535Z,1015.35
2023-02-07T05:03:23.521Z,1015.35
2023-02-07T05:04:23.536Z,1015.34
2023-02-07T05:05:23.533Z,1015.39
2023-02-07T05:06:23.504Z,1015.43
2023-02-07T05:07:23.496Z,1015.38
2023-02-07T05:08:25.263Z,1015.39
2023-02-07T05:09:23.484Z,1015.34
2023-02-07T05:10:23.500Z,1015.38
2023-02-07T05:11:23.468Z,1015.40
2023-02-07T05:12:23.458Z,1015.46
2023-02-07T05:13:23.452Z,1015.52
2023-02-07T05:14:23.445Z,1015.54
2023-02-07T05:15:23.470Z,1015.50
2023-02-07T05:16:23.482Z,1015.57
2023-02-07T05:17:23.425Z,1015.46
2023-02-07T05:18:23.423Z,1015.53
2023-02-07T05:19:23.408Z,1015.59
2023-02-07T05:20:23.432Z,1015.57
2023-02-07T05:21:23.400Z,1015.57
2023-02-07T05:22:23.395Z,1015.52
2023-02-07T05:23:23.386Z,1015.57
2023-02-07T05:24:23.373Z,1015.56
2023-02-07T05:25:23.393Z,1015.60
2023-02-07T05:26:23.368Z,1015.56
2023-02-07T05:27:23.348Z,1015.61
2023-02-07T05:28:23.349Z,1015.57
2023-02-07T05:29:23.340Z,1015.60
2023-02-07T05:30:23.354Z,1015.63
2023-02-07T05:31:23.427Z,1015.68
2023-02-07T05:32:23.321Z,1015.65
2023-02-07T05:33:23.323Z,1015.71
2023-02-07T05:34:23.304Z,1015.75
2023-02-07T05:35:23.322Z,1015.65
2023-02-07T05:36:23.297Z,1015.78
2023-02-07T05:37:23.277Z,1015.72
2023-02-07T05:38:23.282Z,1015.73
2023-02-07T05:39:23.274Z,1015.80
2023-02-07T05:40:25.653Z,1015.84
2023-02-07T05:41:23.252Z,1015.75
2023-02-07T05:42:23.248Z,1015.70
2023-02-07T05:43:23.241Z,1015.75
2023-02-07T05:44:23.251Z,1015.75
2023-02-07T05:45:23.245Z,1015.72
2023-02-07T05:46:23.250Z,1015.75
2023-02-07T05:47:24.222Z,1015.85
2023-02-07T05:48:23.200Z,1015.95
2023-02-07T05:49:23.202Z,1015.90
2023-02-07T05:50:23.216Z,1015.94
2023-02-07T05:51:23.186Z,1015.94
2023-02-07T05:52:23.164Z,1015.92
2023-02-07T05:53:23.163Z,1016.01
2023-02-07T05:54:23.148Z,1015.99
2023-02-07T05:55:23.169Z,1015.92
2023-02-07T05:56:23.138Z,1015.97
2023-02-07T05:57:23.141Z,1015.97
2023-02-07T05:58:23.140Z,1015.95
2023-02-07T05:59:23.116Z,1015.91
2023-02-07T06:00:23.142Z,1015.95
2023-02-07T06:01:23.107Z,1015.91
2023-02-07T06:02:23.109Z,1015.98
2023-02-07T06:03:23.130Z,1015.98
2023-02-07T06:04:23.082Z,1015.90
2023-02-07T06:05:23.117Z,1015.96
2023-02-07T06:06:23.064Z,1015.93
2023-02-07T06:07:23.065Z,1015.84
2023-02-07T06:08:23.053Z,1015.86
2023-02-07T06:09:23.051Z,1015.86
2023-02-07T06:10:23.073Z,1015.91
2023-02-07T06:11:23.049Z,1015.96
2023-02-07T06:12:23.029Z,1015.94
2023-02-07T06:13:23.025Z,1015.95
2023-02-07T06:14:23.005Z,1015.99
2023-02-07T06:15:23.029Z,1015.94
2023-02-07T06:16:23.005Z,1016.02
2023-02-07T06:17:22.985Z,1015.95
2023-02-07T06:18:22.979Z,1016.04
2023-02-07T06:19:22.970Z,1016.04
2023-02-07T06:20:22.994Z,1016.14
2023-02-07T06:21:23.043Z,1016.04
2023-02-07T06:22:22.951Z,1016.07
2023-02-07T06:23:22.966Z,1016.14
2023-02-07T06:24:22.932Z,1016.14
2023-02-07T06:25:22.960Z,1016.08
2023-02-07T06:26:22.921Z,1016.11
2023-02-07T06:27:22.922Z,1016.18
2023-02-07T06:28:22.984Z,1016.16
2023-02-07T06:29:22.899Z,1016.20
2023-02-07T06:30:22.922Z,1016.21
2023-02-07T06:31:22.941Z,1016.24
2023-02-07T06:32:22.883Z,1016.27
2023-02-07T06:33:22.883Z,1016.34
2023-02-07T06:34:22.866Z,1016.28
2023-02-07T06:35:22.885Z,1016.30
2023-02-07T06:36:22.849Z,1016.34
2023-02-07T06:37:22.843Z,1016.28
2023-02-07T06:38:22.840Z,1016.23
2023-02-07T06:39:22.833Z,1016.18
2023-02-07T06:40:22.853Z,1016.19
2023-02-07T06:41:22.817Z,1016.25
2023-02-07T06:42:22.808Z,1016.26
2023-02-07T06:43:22.797Z,1016.30
2023-02-07T06:44:22.793Z,1016.34
2023-02-07T06:45:22.817Z,1016.33
2023-02-07T06:46:22.780Z,1016.44
2023-02-07T06:47:22.784Z,1016.43
2023-02-07T06:48:22.770Z,1016.51
2023-02-07T06:49:22.750Z,1016.53
2023-02-07T06:50:22.798Z,1016.44
2023-02-07T06:51:22.745Z,1016.48
2023-02-07T06:52:22.737Z,1016.54
2023-02-07T06:53:22.729Z,1016.43
2023-02-07T06:54:22.739Z,1016.50
2023-02-07T06:55:22.744Z,1016.46
2023-02-07T06:56:22.715Z,1016.48
2023-02-07T06:57:22.698Z,1016.57
2023-02-07T06:58:22.692Z,1016.52
2023-02-07T06:59:22.687Z,1016.57
2023-02-07T07:00:22.707Z,1016.58
2023-02-07T07:01:22.703Z,1016.63
2023-02-07T07:02:22.680Z,1016.54
2023-02-07T07:03:22.659Z,1016.53
2023-02-07T07:04:22.648Z,1016.54
2023-02-07T07:05:22.674Z,1016.55
2023-02-07T07:06:22.636Z,1016.63
2023-02-07T07:07:22.630Z,1016.59
2023-02-07T07:08:22.620Z,1016.64
2023-02-07T07:09:22.609Z,1016.61
2023-02-07T07:10:22.706Z,1016.60
2023-02-07T07:11:23.596Z,1016.57
2023-02-07T07:12:22.595Z,1016.67
2023-02-07T07:13:22.589Z,1016.64
2023-02-07T07:14:22.582Z,1016.61
2023-02-07T07:15:22.597Z,1016.65
2023-02-07T07:16:22.624Z,1016.63
2023-02-07T07:17:22.550Z,1016.73
2023-02-07T07:18:22.564Z,1016.76
2023-02-07T07:19:22.543Z,1016.75
2023-02-07T07:20:22.564Z,1016.71
2023-02-07T07:21:22.529Z,1016.75
2023-02-07T07:22:22.521Z,1016.79
2023-02-07T07:23:22.521Z,1016.74
2023-02-07T07:24:22.506Z,1016.79
2023-02-07T07:25:22.535Z,1016.77
2023-02-07T07:26:22.491Z,1016.77
2023-02-07T07:27:22.492Z,1016.83
2023-02-07T07:28:22.507Z,1016.79
2023-02-07T07:29:22.495Z,1016.82
2023-02-07T07:30:22.458Z,1016.85
2023-02-07T07:31:22.481Z,1016.81
2023-02-07T07:32:33.266Z,1016.86
2023-02-07T07:33:24.440Z,1016.82
2023-02-07T07:34:22.427Z,1016.89
2023-02-07T07:35:22.426Z,1016.79
2023-02-07T07:36:22.441Z,1016.84
2023-02-07T07:37:22.420Z,1016.90
2023-02-07T07:38:22.397Z,1016.90
2023-02-07T07:39:22.389Z,1016.91
2023-02-07T07:40:22.384Z,1016.80
2023-02-07T07:41:22.400Z,1016.83
2023-02-07T07:42:22.374Z,1016.79
2023-02-07T07:43:22.364Z,1016.89
2023-02-07T07:44:22.358Z,1016.84
2023-02-07T07:45:22.349Z,1016.84
2023-02-07T07:46:22.406Z,1016.84
2023-02-07T07:47:22.327Z,1016.84
2023-02-07T07:48:22.410Z,1016.84
2023-02-07T07:49:22.321Z,1016.88
2023-02-07T07:50:22.308Z,1016.84
2023-02-07T07:51:22.344Z,1016.90
2023-02-07T07:52:22.293Z,1016.87
2023-02-07T07:53:22.283Z,1016.88
2023-02-07T07:54:22.278Z,1016.93
2023-02-07T07:55:22.271Z,1016.94
2023-02-07T07:56:22.287Z,1016.97
2023-02-07T07:57:22.257Z,1016.88
2023-02-07T07:58:22.246Z,1016.88
2023-02-07T07:59:24.283Z,1016.90
2023-02-07T08:00:23.249Z,1016.97
2023-02-07T08:01:22.246Z,1017.03
2023-02-07T08:02:22.210Z,1016.95
2023-02-07T08:03:22.206Z,1016.95
2023-02-07T08:04:22.201Z,1016.89
2023-02-07T08:05:22.191Z,1016.94
2023-02-07T08:06:22.206Z,1016.89
2023-02-07T08:07:22.173Z,1016.95
2023-02-07T08:08:22.168Z,1016.86
2023-02-07T08:09:22.155Z,1016.82
2023-02-07T08:10:22.149Z,1016.81
2023-02-07T08:11:22.179Z,1016.77
2023-02-07T08:12:22.136Z,1016.74
2023-02-07T08:13:22.620Z,1016.67
2023-02-07T08:14:22.120Z,1016.64
2023-02-07T08:15:22.111Z,1016.64
2023-02-07T08:16:22.166Z,1016.63
2023-02-07T08:17:22.102Z,1016.64
2023-02-07T08:18:22.092Z,1016.68
2023-02-07T08:19:22.099Z,1016.65
2023-02-07T08:20:22.078Z,1016.58
2023-02-07T08:21:22.095Z,1016.65
2023-02-07T08:22:22.070Z,1016.62
2023-02-07T08:23:22.078Z,1016.58
2023-02-07T08:24:22.044Z,1016.54
2023-02-07T08:25:22.040Z,1016.46
2023-02-07T08:26:22.052Z,1016.53
2023-02-07T08:27:22.024Z,1016.51
2023-02-07T08:28:22.070Z,1016.55
2023-02-07T08:29:22.006Z,1016.57
2023-02-07T08:30:22.006Z,1016.57
2023-02-07T08:31:22.086Z,1016.61
2023-02-07T08:32:22.011Z,1016.59
2023-02-07T08:33:21.974Z,1016.51
2023-02-07T08:34:21.968Z,1016.58
2023-02-07T08:35:21.970Z,1016.51
2023-02-07T08:36:21.980Z,1016.53
2023-02-07T08:37:21.943Z,1016.59
2023-02-07T08:38:21.936Z,1016.57
2023-02-07T08:39:21.932Z,1016.51
2023-02-07T08:40:21.923Z,1016.57
2023-02-07T08:41:21.945Z,1016.53
2023-02-07T08:42:21.908Z,1016.55
2023-02-07T08:43:21.902Z,1016.47
2023-02-07T08:44:21.914Z,1016.42
2023-02-07T08:45:21.905Z,1016.51
2023-02-07T08:46:21.929Z,1016.43
2023-02-07T08:47:21.865Z,1016.43
2023-02-07T08:48:21.856Z,1016.43
2023-02-07T08:49:21.851Z,1016.46
2023-02-07T08:50:21.857Z,1016.44
2023-02-07T08:51:21.858Z,1016.43
2023-02-07T08:52:21.829Z,1016.41
2023-02-07T08:53:21.818Z,1016.41
2023-02-07T08:54:21.805Z,1016.46
2023-02-07T08:55:21.798Z,1016.38
2023-02-07T08:56:21.813Z,1016.47
2023-02-07T08:57:21.782Z,1016.44
2023-02-07T08:58:21.778Z,1016.54
2023-02-07T08:59:21.768Z,1016.54
2023-02-07T09:00:21.761Z,1016.50
2023-02-07T09:01:21.839Z,1016.50
2023-02-07T09:02:21.756Z,1016.45
2023-02-07T09:03:21.738Z,1016.45
2023-02-07T09:04:21.726Z,1016.43
2023-02-07T09:05:21.724Z,1016.45
2023-02-07T09:06:21.733Z,1016.45
2023-02-07T09:07:21.703Z,1016.48
2023-02-07T09:08:21.698Z,1016.52
2023-02-07T09:09:21.695Z,1016.53
2023-02-07T09:10:21.679Z,1016.54
2023-02-07T09:11:21.707Z,1016.50
2023-02-07T09:12:21.667Z,1016.52
2023-02-07T09:13:21.721Z,1016.52
2023-02-07T09:14:21.654Z,1016.56
2023-02-07T09:15:21.643Z,1016.67
2023-02-07T09:16:21.665Z,1016.63
2023-02-07T09:17:21.634Z,1016.61
2023-02-07T09:18:21.617Z,1016.57
2023-02-07T09:19:21.614Z,1016.59
2023-02-07T09:20:21.618Z,1016.63
2023-02-07T09:21:21.632Z,1016.59
2023-02-07T09:22:21.590Z,1016.63
2023-02-07T09:23:21.581Z,1016.55
2023-02-07T09:24:21.574Z,1016.58
2023-02-07T09:25:21.566Z,1016.60
2023-02-07T09:26:21.620Z,1016.55
2023-02-07T09:27:21.554Z,1016.56
2023-02-07T09:28:21.632Z,1016.56
2023-02-07T09:29:21.534Z,1016.58
2023-02-07T09:30:21.537Z,1016.58
2023-02-07T09:31:21.661Z,1016.60
2023-02-07T09:32:21.518Z,1016.59
2023-02-07T09:33:21.503Z,1016.61
2023-02-07T09:34:21.498Z,1016.63
2023-02-07T09:35:21.492Z,1016.61
2023-02-07T09:36:21.503Z,1016.55
2023-02-07T09:37:21.470Z,1016.54
2023-02-07T09:38:21.463Z,1016.53
2023-02-07T09:39:21.467Z,1016.60
2023-02-07T09:40:21.499Z,1016.59
2023-02-07T09:41:21.478Z,1016.59
2023-02-07T09:42:21.436Z,1016.63
2023-02-07T09:43:21.619Z,1016.56
2023-02-07T09:44:21.662Z,1016.59
2023-02-07T09:45:21.521Z,1016.59
2023-02-07T09:46:21.524Z,1016.56
2023-02-07T09:47:21.394Z,1016.54
2023-02-07T09:48:21.386Z,1016.66
2023-02-07T09:49:21.386Z,1016.61
2023-02-07T09:50:21.511Z,1016.55
2023-02-07T09:51:21.371Z,1016.66
2023-02-07T09:52:21.386Z,1016.62
2023-02-07T09:53:21.351Z,1016.56
2023-02-07T09:54:21.348Z,1016.55
2023-02-07T09:55:21.336Z,1016.59
2023-02-07T09:56:21.339Z,1016.55
2023-02-07T09:57:21.342Z,1016.53
2023-02-07T09:58:21.313Z,1016.55
2023-02-07T09:59:21.305Z,1016.56
2023-02-07T10:00:21.299Z,1016.53
2023-02-07T10:01:21.310Z,1016.57
2023-02-07T10:02:21.326Z,1016.59
2023-02-07T10:03:21.271Z,1016.56
2023-02-07T10:04:21.260Z,1016.54
2023-02-07T10:05:21.263Z,1016.50
2023-02-07T10:06:22.437Z,1016.58
2023-02-07T10:07:22.257Z,1016.54
2023-02-07T10:08:22.104Z,1016.54
2023-02-07T10:09:21.224Z,1016.56
2023-02-07T10:10:21.234Z,1016.55
2023-02-07T10:11:22.202Z,1016.53
2023-02-07T10:12:21.343Z,1016.57
2023-02-07T10:13:21.181Z,1016.49
2023-02-07T10:14:21.185Z,1016.55
2023-02-07T10:15:21.169Z,1016.52
2023-02-07T10:16:21.158Z,1016.57
2023-02-07T10:17:31.162Z,1016.58
2023-02-07T10:18:23.153Z,1016.50
2023-02-07T10:19:21.135Z,1016.59
2023-02-07T10:20:21.186Z,1016.51
2023-02-07T10:21:21.127Z,1016.49
2023-02-07T10:22:21.139Z,1016.62
2023-02-07T10:23:21.141Z,1016.65
2023-02-07T10:24:21.124Z,1016.62
2023-02-07T10:25:21.088Z,1016.60
2023-02-07T10:26:21.113Z,1016.53
2023-02-07T10:27:21.099Z,1016.57
2023-02-07T10:28:21.157Z,1016.52
2023-02-07T10:29:21.067Z,1016.53
2023-02-07T10:30:21.232Z,1016.45
2023-02-07T10:31:21.169Z,1016.46
2023-02-07T10:32:21.063Z,1016.43
2023-02-07T10:33:21.040Z,1016.43
2023-02-07T10:34:21.050Z,1016.50
2023-02-07T10:35:21.048Z,1016.50
2023-02-07T10:36:21.002Z,1016.46
2023-02-07T10:37:21.018Z,1016.58
2023-02-07T10:38:20.989Z,1016.53
2023-02-07T10:39:20.983Z,1016.47
2023-02-07T10:40:20.977Z,1016.54
2023-02-07T10:41:20.987Z,1016.52
2023-02-07T10:42:20.986Z,1016.47
2023-02-07T10:43:20.962Z,1016.42
2023-02-07T10:44:20.955Z,1016.44
2023-02-07T10:45:20.934Z,1016.51
2023-02-07T10:46:21.004Z,1016.48
2023-02-07T10:47:20.952Z,1016.51
2023-02-07T10:48:20.913Z,1016.39
2023-02-07T10:49:24.849Z,1016.50
2023-02-07T10:50:29.763Z,1016.45
2023-02-07T10:51:22.885Z,1016.48
2023-02-07T10:52:20.905Z,1016.45
2023-02-07T10:53:20.868Z,1016.49
2023-02-07T10:54:20.860Z,1016.39
2023-02-07T10:55:20.850Z,1016.40
2023-02-07T10:56:20.845Z,1016.38
2023-02-07T10:57:20.861Z,1016.33
2023-02-07T10:58:23.509Z,1016.37
2023-02-07T10:59:21.823Z,1016.33
2023-02-07T11:00:20.814Z,1016.36
2023-02-07T11:01:20.869Z,1016.42
2023-02-07T11:02:20.868Z,1016.42
2023-02-07T11:03:20.812Z,1016.39
2023-02-07T11:04:20.786Z,1016.34
2023-02-07T11:05:20.775Z,1016.39
2023-02-07T11:06:20.769Z,1016.31
2023-02-07T11:07:20.763Z,1016.32
2023-02-07T11:08:20.780Z,1016.38
2023-02-07T11:09:20.752Z,1016.30
2023-02-07T11:10:20.740Z,1016.29
2023-02-07T11:11:20.738Z,1016.28
2023-02-07T11:12:20.721Z,1016.30
2023-02-07T11:13:21.748Z,1016.26
2023-02-07T11:14:20.715Z,1016.28
2023-02-07T11:15:20.702Z,1016.30
2023-02-07T11:16:20.753Z,1016.30
2023-02-07T11:17:20.690Z,1016.27
2023-02-07T11:18:20.708Z,1016.30
2023-02-07T11:19:20.682Z,1016.20
2023-02-07T11:20:20.662Z,1016.24
2023-02-07T11:21:20.660Z,1016.24
2023-02-07T11:22:20.652Z,1016.18
2023-02-07T11:23:20.665Z,1016.20
2023-02-07T11:24:20.630Z,1016.19
2023-02-07T11:25:20.624Z,1016.15
2023-02-07T11:26:20.746Z,1016.11
2023-02-07T11:27:20.608Z,1016.08
2023-02-07T11:28:20.733Z,1016.08
2023-02-07T11:29:20.593Z,1016.08
2023-02-07T11:30:20.603Z,1016.09
2023-02-07T11:31:20.654Z,1016.02
2023-02-07T11:32:21.512Z,1016.00
2023-02-07T11:33:20.592Z,1016.00
2023-02-07T11:34:20.554Z,1016.01
2023-02-07T11:35:20.547Z,1015.97
2023-02-07T11:36:20.542Z,1015.92
2023-02-07T11:37:20.547Z,1015.98
2023-02-07T11:38:20.542Z,1016.03
2023-02-07T11:39:20.521Z,1016.00
2023-02-07T11:40:20.505Z,1015.99
2023-02-07T11:41:20.495Z,1016.01
2023-02-07T11:42:20.495Z,1015.95
2023-02-07T11:43:20.504Z,1016.01
2023-02-07T11:44:20.476Z,1016.02
2023-02-07T11:45:20.468Z,1016.04
2023-02-07T11:46:20.531Z,1015.99
2023-02-07T11:47:20.453Z,1016.00
2023-02-07T11:48:20.466Z,1015.99
2023-02-07T11:49:20.439Z,1016.01
2023-02-07T11:50:20.422Z,1015.96
2023-02-07T11:51:20.416Z,1015.97
2023-02-07T11:52:20.405Z,1015.98
2023-02-07T11:53:20.421Z,1015.91
2023-02-07T11:54:20.398Z,1015.88
2023-02-07T11:55:20.378Z,1015.91
2023-02-07T11:56:20.377Z,1015.93
2023-02-07T11:57:20.369Z,1015.95
2023-02-07T11:58:20.392Z,1015.92
2023-02-07T11:59:20.359Z,1015.91
2023-02-07T12:00:20.345Z,1015.95
2023-02-07T12:01:20.343Z,1015.89
2023-02-07T12:02:20.388Z,1015.90
2023-02-07T12:03:20.324Z,1015.89
2023-02-07T12:04:20.359Z,1015.82
2023-02-07T12:05:20.469Z,1015.86